EZY678Y EGGW-EGAC
Flight info
| Callsign | EZY678Y |
|---|---|
| Flight time | 0h 53m |
| Altitude | 32000 |
| Route | OLNEY T420 TNT UL28 RODOL UM65 TENSO L603 BELOX DCT REMSI DCT NINEB/N0359F240 M148 MAGEE |
| Aircraft | A320/M-SDE2E3FGHIJ1RWXYZ/LB1 |
Departure
| Time | 2026-04-26 12:00 |
|---|---|
| Airport | London Luton Airport (EGGW) |
Arrival
| Time | 2026-04-26 12:54 |
|---|---|
| Airport | George Best Belfast City Airport (EGAC) |
| Time | Latitude | Longitude | Altitude | Speed | Heading |
|---|---|---|---|---|---|
| 2026-04-26 11:23 | 51.88140 | -0.37482 | 517 ft | 0 kts | 162° |
| 2026-04-26 11:51 | 51.88161 | -0.37493 | 517 ft | 4 kts | 162° |
| 2026-04-26 11:52 | 51.88181 | -0.37504 | 516 ft | 4 kts | 180° |
| 2026-04-26 11:52 | 51.88192 | -0.37499 | 516 ft | 4 kts | 235° |
| 2026-04-26 11:52 | 51.88205 | -0.37451 | 516 ft | 2 kts | 252° |
| 2026-04-26 11:52 | 51.88205 | -0.37449 | 516 ft | 0 kts | 252° |
| 2026-04-26 11:55 | 51.88204 | -0.37457 | 516 ft | 3 kts | 254° |
| 2026-04-26 11:55 | 51.88202 | -0.37508 | 516 ft | 6 kts | 282° |
| 2026-04-26 11:55 | 51.88200 | -0.37609 | 518 ft | 8 kts | 243° |
| 2026-04-26 11:55 | 51.88180 | -0.37667 | 522 ft | 6 kts | 240° |
| 2026-04-26 11:56 | 51.88156 | -0.37732 | 523 ft | 10 kts | 238° |
| 2026-04-26 11:56 | 51.88099 | -0.37832 | 523 ft | 13 kts | 219° |
| 2026-04-26 11:56 | 51.88029 | -0.37920 | 523 ft | 13 kts | 218° |
| 2026-04-26 11:56 | 51.87960 | -0.37999 | 523 ft | 12 kts | 204° |
| 2026-04-26 11:57 | 51.87872 | -0.38006 | 523 ft | 14 kts | 165° |
| 2026-04-26 11:57 | 51.87794 | -0.37893 | 523 ft | 17 kts | 117° |
| 2026-04-26 11:57 | 51.87740 | -0.37709 | 522 ft | 17 kts | 115° |
| 2026-04-26 11:57 | 51.87693 | -0.37552 | 520 ft | 12 kts | 118° |
| 2026-04-26 11:58 | 51.87622 | -0.37465 | 523 ft | 14 kts | 165° |
| 2026-04-26 11:58 | 51.87519 | -0.37496 | 521 ft | 14 kts | 222° |
| 2026-04-26 11:58 | 51.87487 | -0.37632 | 523 ft | 14 kts | 254° |
| 2026-04-26 11:58 | 51.87458 | -0.37803 | 522 ft | 18 kts | 254° |
| 2026-04-26 11:59 | 51.87419 | -0.38006 | 524 ft | 14 kts | 240° |
| 2026-04-26 11:59 | 51.87336 | -0.38091 | 522 ft | 16 kts | 205° |
| 2026-04-26 11:59 | 51.87261 | -0.38122 | 523 ft | 8 kts | 175° |
| 2026-04-26 11:59 | 51.87246 | -0.38092 | 524 ft | 5 kts | 88° |
| 2026-04-26 12:00 | 51.87309 | -0.37730 | 523 ft | 73 kts | 74° |
| 2026-04-26 12:00 | 51.87511 | -0.36558 | 528 ft | 140 kts | 74° |
| 2026-04-26 12:00 | 51.87798 | -0.34912 | 1001 ft | 157 kts | 77° |
| 2026-04-26 12:00 | 51.88097 | -0.33206 | 1738 ft | 162 kts | 77° |
| 2026-04-26 12:01 | 51.88413 | -0.31439 | 2481 ft | 164 kts | 77° |
| 2026-04-26 12:01 | 51.88733 | -0.29657 | 3225 ft | 165 kts | 76° |
| 2026-04-26 12:01 | 51.89105 | -0.27888 | 3918 ft | 173 kts | 62° |
| 2026-04-26 12:01 | 51.90069 | -0.26609 | 4372 ft | 190 kts | 19° |
| 2026-04-26 12:02 | 51.91391 | -0.26643 | 5019 ft | 197 kts | 338° |
| 2026-04-26 12:02 | 51.92147 | -0.27505 | 5411 ft | 201 kts | 307° |
| 2026-04-26 12:02 | 51.92499 | -0.30340 | 6222 ft | 204 kts | 262° |
| 2026-04-26 12:02 | 51.92413 | -0.32768 | 6586 ft | 227 kts | 268° |
| 2026-04-26 12:03 | 51.92412 | -0.35388 | 7261 ft | 239 kts | 274° |
| 2026-04-26 12:03 | 51.92912 | -0.37993 | 7970 ft | 250 kts | 301° |
| 2026-04-26 12:03 | 51.94163 | -0.40008 | 8667 ft | 264 kts | 327° |
| 2026-04-26 12:03 | 51.95765 | -0.41573 | 9446 ft | 274 kts | 327° |
| 2026-04-26 12:04 | 51.97431 | -0.43188 | 10202 ft | 284 kts | 328° |
| 2026-04-26 12:04 | 51.99174 | -0.44880 | 10754 ft | 301 kts | 327° |
| 2026-04-26 12:04 | 52.01025 | -0.46684 | 11252 ft | 319 kts | 327° |
| 2026-04-26 12:04 | 52.02932 | -0.48650 | 11876 ft | 328 kts | 325° |
| 2026-04-26 12:05 | 52.04832 | -0.50742 | 12714 ft | 333 kts | 323° |
| 2026-04-26 12:05 | 52.06741 | -0.52909 | 13569 ft | 336 kts | 323° |
| 2026-04-26 12:05 | 52.08660 | -0.55117 | 14368 ft | 340 kts | 322° |
| 2026-04-26 12:05 | 52.10602 | -0.57346 | 15088 ft | 344 kts | 323° |
| 2026-04-26 12:06 | 52.12569 | -0.59590 | 15801 ft | 347 kts | 323° |
| 2026-04-26 12:06 | 52.14564 | -0.61853 | 16509 ft | 351 kts | 323° |
| 2026-04-26 12:06 | 52.16580 | -0.64129 | 17215 ft | 355 kts | 323° |
| 2026-04-26 12:06 | 52.18620 | -0.66427 | 17924 ft | 358 kts | 323° |
| 2026-04-26 12:07 | 52.20683 | -0.68750 | 18625 ft | 362 kts | 323° |
| 2026-04-26 12:07 | 52.22764 | -0.71096 | 19227 ft | 366 kts | 323° |
| 2026-04-26 12:07 | 52.24867 | -0.73471 | 19842 ft | 368 kts | 323° |
| 2026-04-26 12:07 | 52.26868 | -0.75741 | 20436 ft | 371 kts | 323° |
| 2026-04-26 12:08 | 52.28996 | -0.78157 | 21072 ft | 373 kts | 323° |
| 2026-04-26 12:08 | 52.31064 | -0.80506 | 21685 ft | 375 kts | 323° |
| 2026-04-26 12:08 | 52.33261 | -0.83008 | 22313 ft | 378 kts | 323° |
| 2026-04-26 12:08 | 52.35393 | -0.85440 | 22890 ft | 380 kts | 323° |
| 2026-04-26 12:09 | 52.37571 | -0.87922 | 23458 ft | 383 kts | 323° |
| 2026-04-26 12:09 | 52.39766 | -0.90423 | 24011 ft | 386 kts | 323° |
| 2026-04-26 12:09 | 52.41978 | -0.92948 | 24484 ft | 388 kts | 322° |
| 2026-04-26 12:09 | 52.44198 | -0.95487 | 24955 ft | 390 kts | 322° |
| 2026-04-26 12:10 | 52.46427 | -0.98045 | 25424 ft | 392 kts | 322° |
| 2026-04-26 12:10 | 52.48667 | -1.00620 | 25873 ft | 395 kts | 322° |
| 2026-04-26 12:10 | 52.50925 | -1.03218 | 26279 ft | 398 kts | 322° |
| 2026-04-26 12:10 | 52.53204 | -1.05841 | 26727 ft | 401 kts | 322° |
| 2026-04-26 12:11 | 52.55488 | -1.08475 | 27199 ft | 402 kts | 322° |
| 2026-04-26 12:11 | 52.57782 | -1.11122 | 27641 ft | 404 kts | 321° |
| 2026-04-26 12:11 | 52.60087 | -1.13784 | 28078 ft | 406 kts | 321° |
| 2026-04-26 12:12 | 52.60696 | -1.14483 | 28237 ft | 405 kts | 322° |
| 2026-04-26 12:12 | 52.63020 | -1.17135 | 28628 ft | 408 kts | 321° |
| 2026-04-26 12:12 | 52.63811 | -1.18044 | 28759 ft | 409 kts | 321° |
| 2026-04-26 12:13 | 52.67469 | -1.22290 | 29412 ft | 412 kts | 321° |
| 2026-04-26 12:13 | 52.69819 | -1.25035 | 29821 ft | 415 kts | 321° |
| 2026-04-26 12:13 | 52.72177 | -1.27792 | 30229 ft | 417 kts | 321° |
| 2026-04-26 12:13 | 52.74549 | -1.30567 | 30640 ft | 419 kts | 321° |
| 2026-04-26 12:14 | 52.76930 | -1.33356 | 31008 ft | 420 kts | 321° |
| 2026-04-26 12:14 | 52.79314 | -1.36152 | 31371 ft | 421 kts | 321° |
| 2026-04-26 12:14 | 52.81704 | -1.38956 | 31711 ft | 422 kts | 321° |
| 2026-04-26 12:14 | 52.84101 | -1.41772 | 32052 ft | 423 kts | 321° |
| 2026-04-26 12:15 | 52.86499 | -1.44588 | 32287 ft | 422 kts | 321° |
| 2026-04-26 12:15 | 52.88867 | -1.47369 | 32329 ft | 409 kts | 321° |
| 2026-04-26 12:15 | 52.91138 | -1.50038 | 32323 ft | 395 kts | 321° |
| 2026-04-26 12:16 | 52.95653 | -1.55391 | 32327 ft | 402 kts | 320° |
| 2026-04-26 12:16 | 53.00203 | -1.60806 | 32340 ft | 403 kts | 320° |
| 2026-04-26 12:17 | 53.03980 | -1.65309 | 32322 ft | 402 kts | 320° |
| 2026-04-26 12:17 | 53.08579 | -1.70595 | 32321 ft | 401 kts | 319° |
| 2026-04-26 12:17 | 53.10528 | -1.73817 | 32324 ft | 393 kts | 304° |
| 2026-04-26 12:18 | 53.12144 | -1.77484 | 32316 ft | 392 kts | 303° |
| 2026-04-26 12:18 | 53.15340 | -1.84850 | 32307 ft | 393 kts | 302° |
| 2026-04-26 12:19 | 53.18525 | -1.92246 | 32310 ft | 393 kts | 303° |
| 2026-04-26 12:19 | 53.21792 | -1.99551 | 32310 ft | 393 kts | 304° |
| 2026-04-26 12:20 | 53.25149 | -2.06752 | 32329 ft | 393 kts | 304° |
| 2026-04-26 12:20 | 53.28497 | -2.13971 | 32325 ft | 393 kts | 304° |
| 2026-04-26 12:21 | 53.31811 | -2.21224 | 32325 ft | 393 kts | 304° |
| 2026-04-26 12:21 | 53.35119 | -2.28505 | 32322 ft | 393 kts | 304° |
| 2026-04-26 12:22 | 53.38423 | -2.35795 | 32318 ft | 393 kts | 304° |
| 2026-04-26 12:22 | 53.41726 | -2.43092 | 32316 ft | 393 kts | 304° |
| 2026-04-26 12:23 | 53.45028 | -2.50392 | 32297 ft | 393 kts | 304° |
| 2026-04-26 12:23 | 53.48334 | -2.57686 | 32295 ft | 393 kts | 304° |
| 2026-04-26 12:24 | 53.51634 | -2.64997 | 32287 ft | 393 kts | 303° |
| 2026-04-26 12:24 | 53.54926 | -2.72338 | 32285 ft | 393 kts | 303° |
| 2026-04-26 12:25 | 53.59860 | -2.83379 | 32283 ft | 394 kts | 303° |
| 2026-04-26 12:25 | 53.63151 | -2.90745 | 32280 ft | 394 kts | 303° |
| 2026-04-26 12:26 | 53.66439 | -2.98130 | 32281 ft | 394 kts | 303° |
| 2026-04-26 12:26 | 53.69718 | -3.05521 | 32282 ft | 394 kts | 303° |
| 2026-04-26 12:27 | 53.72987 | -3.12930 | 32310 ft | 393 kts | 302° |
| 2026-04-26 12:27 | 53.76256 | -3.20339 | 32293 ft | 393 kts | 302° |
| 2026-04-26 12:28 | 53.79520 | -3.27767 | 32281 ft | 393 kts | 302° |
| 2026-04-26 12:28 | 53.82785 | -3.35207 | 32277 ft | 394 kts | 302° |
| 2026-04-26 12:29 | 53.86041 | -3.42659 | 32277 ft | 394 kts | 302° |
| 2026-04-26 12:29 | 53.89041 | -3.50357 | 32275 ft | 388 kts | 291° |
| 2026-04-26 12:30 | 53.90015 | -3.54608 | 32273 ft | 386 kts | 287° |
| 2026-04-26 12:30 | 53.91857 | -3.63172 | 32269 ft | 387 kts | 287° |
| 2026-04-26 12:31 | 53.94634 | -3.76046 | 32288 ft | 387 kts | 286° |
| 2026-04-26 12:31 | 53.96645 | -3.84476 | 32004 ft | 390 kts | 295° |
| 2026-04-26 12:32 | 53.98008 | -3.88463 | 31672 ft | 382 kts | 296° |
| 2026-04-26 12:32 | 53.99324 | -3.92295 | 31173 ft | 378 kts | 296° |
| 2026-04-26 12:32 | 54.01934 | -3.99963 | 30223 ft | 372 kts | 296° |
| 2026-04-26 12:33 | 54.03209 | -4.03753 | 29745 ft | 367 kts | 296° |
| 2026-04-26 12:33 | 54.04462 | -4.07495 | 29301 ft | 362 kts | 296° |
| 2026-04-26 12:33 | 54.05696 | -4.11197 | 28875 ft | 357 kts | 296° |
| 2026-04-26 12:33 | 54.07027 | -4.14733 | 28464 ft | 354 kts | 301° |
| 2026-04-26 12:34 | 54.08439 | -4.18131 | 28044 ft | 350 kts | 301° |
| 2026-04-26 12:34 | 54.09837 | -4.21491 | 27624 ft | 346 kts | 301° |
| 2026-04-26 12:34 | 54.11220 | -4.24828 | 27212 ft | 343 kts | 301° |
| 2026-04-26 12:34 | 54.12588 | -4.28138 | 26773 ft | 341 kts | 301° |
| 2026-04-26 12:35 | 54.13945 | -4.31433 | 26344 ft | 338 kts | 301° |
| 2026-04-26 12:35 | 54.15294 | -4.34709 | 25900 ft | 337 kts | 301° |
| 2026-04-26 12:35 | 54.16639 | -4.37972 | 25460 ft | 336 kts | 301° |
| 2026-04-26 12:35 | 54.17980 | -4.41226 | 25008 ft | 335 kts | 302° |
| 2026-04-26 12:36 | 54.19319 | -4.44480 | 24549 ft | 335 kts | 302° |
| 2026-04-26 12:36 | 54.20658 | -4.47741 | 24082 ft | 335 kts | 302° |
| 2026-04-26 12:36 | 54.21995 | -4.50998 | 23585 ft | 335 kts | 302° |
| 2026-04-26 12:36 | 54.23330 | -4.54249 | 23098 ft | 333 kts | 302° |
| 2026-04-26 12:37 | 54.24658 | -4.57486 | 22657 ft | 331 kts | 302° |
| 2026-04-26 12:37 | 54.25955 | -4.60660 | 22215 ft | 329 kts | 302° |
| 2026-04-26 12:37 | 54.27261 | -4.63862 | 21783 ft | 327 kts | 302° |
| 2026-04-26 12:37 | 54.28558 | -4.67052 | 21355 ft | 326 kts | 302° |
| 2026-04-26 12:38 | 54.29849 | -4.70236 | 20924 ft | 324 kts | 302° |
| 2026-04-26 12:38 | 54.31131 | -4.73405 | 20503 ft | 323 kts | 302° |
| 2026-04-26 12:38 | 54.32410 | -4.76567 | 20078 ft | 323 kts | 302° |
| 2026-04-26 12:38 | 54.33687 | -4.79721 | 19651 ft | 322 kts | 302° |
| 2026-04-26 12:39 | 54.34966 | -4.82874 | 19237 ft | 322 kts | 302° |
| 2026-04-26 12:39 | 54.36241 | -4.86023 | 18826 ft | 321 kts | 302° |
| 2026-04-26 12:39 | 54.37515 | -4.89172 | 18380 ft | 321 kts | 302° |
| 2026-04-26 12:39 | 54.38784 | -4.92319 | 17940 ft | 320 kts | 302° |
| 2026-04-26 12:40 | 54.40044 | -4.95454 | 17549 ft | 318 kts | 302° |
| 2026-04-26 12:40 | 54.41298 | -4.98583 | 17141 ft | 317 kts | 302° |
| 2026-04-26 12:40 | 54.42544 | -5.01693 | 16744 ft | 316 kts | 302° |
| 2026-04-26 12:40 | 54.43788 | -5.04788 | 16354 ft | 315 kts | 302° |
| 2026-04-26 12:41 | 54.45030 | -5.07872 | 15982 ft | 313 kts | 302° |
| 2026-04-26 12:41 | 54.46273 | -5.10943 | 15615 ft | 312 kts | 302° |
| 2026-04-26 12:41 | 54.47509 | -5.13996 | 15249 ft | 311 kts | 302° |
| 2026-04-26 12:41 | 54.48671 | -5.17105 | 14900 ft | 307 kts | 291° |
| 2026-04-26 12:42 | 54.49115 | -5.20584 | 14684 ft | 295 kts | 267° |
| 2026-04-26 12:42 | 54.48715 | -5.24003 | 14373 ft | 291 kts | 251° |
| 2026-04-26 12:42 | 54.48036 | -5.27278 | 14032 ft | 290 kts | 249° |
| 2026-04-26 12:42 | 54.47335 | -5.30527 | 13665 ft | 289 kts | 249° |
| 2026-04-26 12:43 | 54.46640 | -5.33757 | 13307 ft | 287 kts | 249° |
| 2026-04-26 12:43 | 54.45954 | -5.36969 | 12930 ft | 283 kts | 249° |
| 2026-04-26 12:43 | 54.45282 | -5.40134 | 12263 ft | 281 kts | 249° |
| 2026-04-26 12:43 | 54.44621 | -5.43283 | 11622 ft | 279 kts | 249° |
| 2026-04-26 12:44 | 54.43977 | -5.46401 | 11070 ft | 273 kts | 249° |
| 2026-04-26 12:44 | 54.43375 | -5.49363 | 10944 ft | 253 kts | 249° |
| 2026-04-26 12:44 | 54.42814 | -5.52149 | 10661 ft | 243 kts | 249° |
| 2026-04-26 12:44 | 54.42279 | -5.54833 | 10253 ft | 239 kts | 249° |
| 2026-04-26 12:45 | 54.41750 | -5.57521 | 9720 ft | 237 kts | 249° |
| 2026-04-26 12:45 | 54.41227 | -5.60186 | 9175 ft | 235 kts | 249° |
| 2026-04-26 12:45 | 54.40702 | -5.62836 | 8617 ft | 233 kts | 249° |
| 2026-04-26 12:45 | 54.40177 | -5.65459 | 8071 ft | 232 kts | 249° |
| 2026-04-26 12:46 | 54.39673 | -5.68078 | 7512 ft | 231 kts | 256° |
| 2026-04-26 12:46 | 54.39548 | -5.70827 | 6954 ft | 232 kts | 268° |
| 2026-04-26 12:46 | 54.39566 | -5.73596 | 6445 ft | 230 kts | 269° |
| 2026-04-26 12:46 | 54.39593 | -5.76284 | 6201 ft | 224 kts | 269° |
| 2026-04-26 12:47 | 54.39616 | -5.78903 | 5932 ft | 215 kts | 269° |
| 2026-04-26 12:47 | 54.39646 | -5.81436 | 5680 ft | 212 kts | 274° |
| 2026-04-26 12:47 | 54.40173 | -5.83777 | 5423 ft | 214 kts | 303° |
| 2026-04-26 12:47 | 54.41039 | -5.85845 | 5196 ft | 213 kts | 304° |
| 2026-04-26 12:48 | 54.41897 | -5.87888 | 4957 ft | 209 kts | 304° |
| 2026-04-26 12:48 | 54.42738 | -5.89914 | 4701 ft | 208 kts | 304° |
| 2026-04-26 12:48 | 54.43575 | -5.91939 | 4439 ft | 208 kts | 303° |
| 2026-04-26 12:48 | 54.44412 | -5.93954 | 4186 ft | 207 kts | 304° |
| 2026-04-26 12:49 | 54.45233 | -5.95944 | 3965 ft | 199 kts | 304° |
| 2026-04-26 12:49 | 54.46006 | -5.97828 | 3708 ft | 192 kts | 303° |
| 2026-04-26 12:49 | 54.46859 | -5.99534 | 3453 ft | 187 kts | 318° |
| 2026-04-26 12:49 | 54.47974 | -6.00622 | 3191 ft | 184 kts | 339° |
| 2026-04-26 12:50 | 54.49228 | -6.00976 | 2933 ft | 183 kts | 359° |
| 2026-04-26 12:50 | 54.50470 | -6.00565 | 2676 ft | 182 kts | 20° |
| 2026-04-26 12:50 | 54.51564 | -5.99464 | 2395 ft | 183 kts | 33° |
| 2026-04-26 12:50 | 54.52610 | -5.98220 | 2124 ft | 182 kts | 34° |
| 2026-04-26 12:51 | 54.53648 | -5.96987 | 1869 ft | 180 kts | 34° |
| 2026-04-26 12:51 | 54.54660 | -5.95783 | 1633 ft | 171 kts | 34° |
| 2026-04-26 12:51 | 54.55595 | -5.94669 | 1409 ft | 155 kts | 34° |
| 2026-04-26 12:51 | 54.56446 | -5.93656 | 1187 ft | 143 kts | 34° |
| 2026-04-26 12:52 | 54.57247 | -5.92702 | 1000 ft | 137 kts | 34° |
| 2026-04-26 12:52 | 54.58014 | -5.91785 | 823 ft | 131 kts | 33° |
| 2026-04-26 12:52 | 54.58756 | -5.90901 | 638 ft | 128 kts | 34° |
| 2026-04-26 12:52 | 54.59479 | -5.90036 | 462 ft | 126 kts | 34° |
| 2026-04-26 12:53 | 54.60193 | -5.89183 | 295 ft | 124 kts | 34° |
| 2026-04-26 12:53 | 54.60900 | -5.88338 | 145 ft | 123 kts | 33° |
| 2026-04-26 12:53 | 54.61600 | -5.87503 | 26 ft | 116 kts | 33° |
| 2026-04-26 12:53 | 54.62115 | -5.86885 | 16 ft | 51 kts | 34° |
| 2026-04-26 12:54 | 54.62231 | -5.86730 | 21 ft | 6 kts | 54° |
| 2026-04-26 12:54 | 54.62253 | -5.86728 | 23 ft | 2 kts | 295° |
| 2026-04-26 12:54 | 54.62246 | -5.86740 | 25 ft | 1 kts | 217° |
| 2026-04-26 12:54 | 54.62206 | -5.86781 | 20 ft | 13 kts | 209° |
| 2026-04-26 12:55 | 54.62117 | -5.86885 | 16 ft | 16 kts | 215° |
| 2026-04-26 12:55 | 54.62029 | -5.86989 | 17 ft | 15 kts | 214° |
| 2026-04-26 12:55 | 54.61944 | -5.87091 | 17 ft | 14 kts | 215° |
| 2026-04-26 12:55 | 54.61872 | -5.87174 | 19 ft | 11 kts | 204° |
| 2026-04-26 12:56 | 54.61809 | -5.87112 | 18 ft | 11 kts | 124° |
| 2026-04-26 12:56 | 54.61774 | -5.87027 | 21 ft | 6 kts | 125° |
| 2026-04-26 12:56 | 54.61733 | -5.86991 | 21 ft | 8 kts | 184° |
| 2026-04-26 12:56 | 54.61699 | -5.87024 | 23 ft | 0 kts | 213° |
| 2026-04-26 12:58 | 54.61651 | -5.87080 | 21 ft | 8 kts | 214° |
| 2026-04-26 12:58 | 54.61573 | -5.87174 | 21 ft | 17 kts | 214° |
| 2026-04-26 12:58 | 54.61497 | -5.87265 | 21 ft | 8 kts | 214° |
| 2026-04-26 12:58 | 54.61454 | -5.87274 | 21 ft | 5 kts | 138° |
| 2026-04-26 12:59 | 54.61439 | -5.87235 | 21 ft | 2 kts | 124° |
| 2026-04-26 12:59 | 54.61433 | -5.87220 | 21 ft | 1 kts | 124° |